• Join FlightAware (Why Join?)
  • Login
  • US Flag GB Flag 
10:33 EDT


 

Airport Tracker/Info


-or-


 

Live Flight TrackerFlight Track Log ✈ FIN666 ✈ 04-Jan-2014 ✈ EKCH / CPH - EFHK / HEL

Flight Track Log - Related Links

Times and Time Zones

All times are in EST time to prevent confusion due to time zone crossing. See the FIN666 flight status page for this flight to view local times or setup timezone preferences in your user account.

Time Position Orientation Groundspeed Altitude Reporting Facility
EST Latitude Longitude Course Direction KTS MPH feet Rate Location/Type
07:31 55.8358 13.1062 49° Northeast  Level Estimated
07:32 55.9081 13.2574 50° Northeast  Level Estimated
07:33 55.9802 13.4092 50° Northeast  Level Estimated
07:34 56.0531 13.5637 50° Northeast  Level Estimated
07:35 56.1258 13.7187 50° Northeast  Level Estimated
07:36 56.1983 13.8744 50° Northeast  Level Estimated
07:37 56.2707 14.0306 50° Northeast  Level Estimated
07:38 56.3428 14.1875 50° Northeast  Level Estimated
07:39 56.4147 14.3449 50° Northeast  Level Estimated
07:40 56.4865 14.5029 51° Northeast  Level Estimated
07:41 56.5580 14.6615 51° Northeast  Level Estimated
07:42 56.6293 14.8208 51° Northeast  Level Estimated
07:43 56.7005 14.9806 51° Northeast  Level Estimated
07:44 56.7714 15.1410 51° Northeast  Level Estimated
07:45 56.8421 15.3020 51° Northeast  Level Estimated
07:46 56.9126 15.4637 51° Northeast  Level Estimated
07:47 56.9829 15.6259 51° Northeast  Level Estimated
07:48 57.0530 15.7888 52° Northeast  Level Estimated
07:49 57.1228 15.9523 52° Northeast  Level Estimated
07:50 57.1925 16.1164 52° Northeast  Level Estimated
07:51 57.2629 16.2834 52° Northeast  Level Estimated
07:52 57.3331 16.4512 52° Northeast  Level Estimated
07:53 57.4031 16.6195 52° Northeast  Level Estimated
07:54 57.4729 16.7885 52° Northeast  Level Estimated
07:55 57.5424 16.9582 53° Northeast  Level Estimated
07:56 57.6117 17.1285 53° Northeast  Level Estimated
07:57 57.6808 17.2994 53° Northeast  Level Estimated
07:58 57.7496 17.4710 53° Northeast  Level Estimated
07:59 57.8182 17.6432 53° Northeast  Level Estimated
08:00 57.8866 17.8161 53° Northeast  Level Estimated
08:01 57.9548 17.9897 53° Northeast  Level Estimated
08:02 58.0227 18.1639 54° Northeast  Level Estimated
08:03 58.0903 18.3388 54° Northeast  Level Estimated
08:04 58.1577 18.5143 54° Northeast  Level Estimated
08:05 58.2249 18.6905 54° Northeast  Level Estimated
08:06 58.2919 18.8674 54° Northeast  Level Estimated
08:07 58.3586 19.0450 54° Northeast  Level Estimated
08:08 58.4250 19.2232 54° Northeast  Level Estimated
08:09 58.4912 19.4021 55° Northeast  Level Estimated
08:10 58.5572 19.5816 55° Northeast  Level Estimated
08:11 58.6228 19.7619 55° Northeast  Level Estimated
08:12 58.6883 19.9428 55° Northeast  Level Estimated
08:13 58.7535 20.1244 55° Northeast  Level Estimated
08:14 58.8184 20.3067 55° Northeast  Level Estimated
08:15 58.8831 20.4897 56° Northeast  Level Estimated
08:16 58.9475 20.6733 56° Northeast  Level Estimated
08:17 59.0117 20.8576 56° Northeast  Level Estimated
08:18 59.0756 21.0427 56° Northeast  Level Estimated
08:19 59.1392 21.2284 56° Northeast  Level Estimated
08:20 59.2025 21.4148 56° Northeast  Level Estimated
08:21 59.2657 21.6019 57° Northeast  Level Estimated
08:22 59.3285 21.7896 57° Northeast  Level Estimated
08:23 59.3910 21.9781 57° Northeast  Level Estimated
08:24 59.4533 22.1673 57° Northeast  Level Estimated
08:25 59.5153 22.3571 57° Northeast  Level Estimated
08:26 59.5770 22.5477 57° Northeast  Level Estimated
08:27 59.6385 22.7390 57° Northeast  Level Estimated
08:28 59.6997 22.9309 58° Northeast  Level Estimated
08:29 59.7606 23.1236 58° Northeast  Level Estimated
08:30 59.8212 23.3170 58° Northeast  Level Estimated
08:31 59.8815 23.5110 58° Northeast  Level Estimated
08:32 59.9415 23.7058 58° Northeast  Level Estimated
08:33 60.0013 23.9013 58° Northeast  Level Estimated
08:34 60.0607 24.0975 59° Northeast  Level Estimated
08:35 60.1199 24.2944 59° Northeast  Level Estimated
08:36 60.1853 24.5140 59° Northeast  Level Estimated
08:37 60.2504 24.7344 59° Northeast  Level Estimated
08:38 60.3150 24.9558 59° Northeast  Level Estimated
08:39 60.3172 24.9633 60° Northeast  Level Estimated
08:40 60.3172 24.9633 37° Northeast  Level Estimated
08:41 60.3172 24.9633 37° Northeast  Level Estimated
08:42 60.3172 24.9633 37° Northeast  Level Estimated
08:43 60.3172 24.9633 37° Northeast  Level Estimated
08:44 60.3172 24.9633 37° Northeast  Level Estimated
08:45 60.3172 24.9633 37° Northeast  Level Estimated
08:46 60.3172 24.9633 37° Northeast  Level Estimated